Time;durP1;ratioP1;P1;durP2;ratioP2;P2;SDS_P1;SDS_P2;PMS_P1;PMS_P2;Temp;Humidity;BMP_temperature;BMP_pressure;BME280_temperature;BME280_humidity;BME280_pressure;Samples;Min_cycle;Max_cycle;Signal;HPM_P1;HPM_P2
2022/07/29 00:00:11;;;;;;;7.85;0.80;;;;;;;15.93;74.89;100984.09;5200603;28;20028;-73
2022/07/29 00:02:41;;;;;;;3.33;0.80;;;;;;;15.87;75.34;100978.28;5200497;28;20025;-74
2022/07/29 00:05:13;;;;;;;4.60;1.13;;;;;;;16.09;74.94;100979.75;5200651;28;20124;-73
2022/07/29 00:07:43;;;;;;;2.40;0.90;;;;;;;15.96;75.66;100978.66;5199815;28;20024;-74
2022/07/29 00:10:13;;;;;;;4.65;0.82;;;;;;;16.02;74.10;100977.50;5198160;28;20033;-73
2022/07/29 00:12:44;;;;;;;3.03;1.08;;;;;;;15.96;74.53;100976.03;5200350;28;20018;-73
2022/07/29 00:15:14;;;;;;;2.88;0.85;;;;;;;15.82;76.13;100970.59;5204554;28;20029;-74
2022/07/29 00:17:44;;;;;;;2.85;0.73;;;;;;;16.09;75.47;100969.22;5202401;28;20112;-74
2022/07/29 00:20:15;;;;;;;2.13;0.90;;;;;;;16.24;75.22;100972.81;5204566;28;20022;-74
2022/07/29 00:22:46;;;;;;;4.82;1.10;;;;;;;16.26;75.53;100963.03;5204188;28;20105;-74
2022/07/29 00:25:16;;;;;;;5.60;1.75;;;;;;;15.94;75.38;100970.00;5203848;28;20566;-73
2022/07/29 00:27:46;;;;;;;4.13;1.00;;;;;;;15.72;76.30;100964.06;5202140;28;20071;-73
2022/07/29 00:30:17;;;;;;;5.15;1.27;;;;;;;15.56;77.93;100955.22;5201170;28;20105;-73
2022/07/29 00:32:47;;;;;;;2.83;0.93;;;;;;;15.33;77.98;100954.69;5204442;28;20013;-73
2022/07/29 00:38:06;;;;;;;3.72;1.08;;;;;;;15.29;79.72;100942.56;5203631;28;20060;-71
2022/07/29 00:40:36;;;;;;;3.80;1.05;;;;;;;15.37;77.82;100932.53;5202712;28;20120;-73
2022/07/29 00:43:07;;;;;;;5.20;1.00;;;;;;;15.65;77.35;100936.34;5200650;28;20029;-74
2022/07/29 00:45:38;;;;;;;4.20;1.20;;;;;;;15.70;76.65;100929.03;5203752;28;20021;-74
2022/07/29 00:48:09;;;;;;;3.17;1.02;;;;;;;15.76;76.66;100931.38;5200228;28;20663;-73
2022/07/29 00:50:39;;;;;;;5.13;1.17;;;;;;;15.78;76.50;100929.53;5198490;28;20031;-73
2022/07/29 00:53:11;;;;;;;6.43;1.25;;;;;;;15.67;76.64;100923.09;5203432;28;20017;-73
2022/07/29 00:55:42;;;;;;;3.22;1.20;;;;;;;15.63;76.35;100927.66;5202027;28;20105;-74
2022/07/29 00:58:13;;;;;;;3.83;0.80;;;;;;;15.68;76.82;100930.91;5200836;28;20555;-73
2022/07/29 01:00:44;;;;;;;3.50;1.00;;;;;;;15.57;77.82;100921.84;5203917;28;20491;-74
2022/07/29 01:03:14;;;;;;;4.45;1.10;;;;;;;15.45;78.47;100914.53;5203857;28;20029;-73
2022/07/29 01:05:45;;;;;;;3.17;1.00;;;;;;;15.75;76.10;100911.22;5203443;28;20033;-74
2022/07/29 01:08:17;;;;;;;4.15;1.10;;;;;;;15.94;77.16;100917.25;5203004;28;20032;-73
2022/07/29 01:10:48;;;;;;;2.85;0.80;;;;;;;15.94;78.55;100912.00;5198050;28;20036;-74
2022/07/29 01:13:19;;;;;;;2.50;1.02;;;;;;;15.79;78.36;100914.53;5203614;28;20021;-74
2022/07/29 01:15:56;;;;;;;5.45;1.20;;;;;;;15.59;78.84;100912.94;5203892;28;20379;-73
2022/07/29 01:18:44;;;;;;;3.58;0.80;;;;;;;15.96;77.76;100904.84;5203026;28;20021;-73
2022/07/29 01:21:38;;;;;;;3.88;1.13;;;;;;;16.09;77.04;100905.91;5203571;28;20029;-73
2022/07/29 01:24:33;;;;;;;4.20;1.20;;;;;;;15.94;76.87;100909.34;5202522;28;20032;-73
2022/07/29 01:27:19;;;;;;;4.93;1.38;;;;;;;15.90;77.50;100910.41;5200753;28;20026;-73
2022/07/29 01:29:56;;;;;;;5.35;1.20;;;;;;;15.36;79.70;100910.59;5202206;28;20041;-73
2022/07/29 01:32:31;;;;;;;3.25;0.98;;;;;;;15.19;81.04;100905.28;5203346;28;20068;-73
2022/07/29 01:35:16;;;;;;;3.38;1.10;;;;;;;15.22;80.03;100905.13;5203495;28;20496;-73
2022/07/29 01:37:59;;;;;;;3.90;1.00;;;;;;;15.40;80.44;100903.41;5202503;28;20032;-73
2022/07/29 01:40:47;;;;;;;1.85;0.82;;;;;;;15.75;78.79;100897.19;5200451;28;20036;-73
2022/07/29 01:43:25;;;;;;;3.88;1.10;;;;;;;15.52;80.26;100903.63;5199257;28;20051;-73
2022/07/29 01:45:55;;;;;;;6.07;1.40;;;;;;;15.29;81.46;100896.03;5202948;28;20028;-73
2022/07/29 01:48:32;;;;;;;3.53;1.00;;;;;;;15.17;81.03;100886.06;5202067;28;20033;-73
2022/07/29 01:51:12;;;;;;;2.63;0.88;;;;;;;15.23;80.38;100890.19;5202904;28;20037;-73
2022/07/29 01:53:50;;;;;;;11.50;1.17;;;;;;;15.58;80.22;100873.47;5202599;28;20021;-74
2022/07/29 01:56:23;;;;;;;3.00;0.88;;;;;;;15.89;77.88;100870.97;5197588;28;20383;-73
2022/07/29 01:58:54;;;;;;;3.22;0.70;;;;;;;15.96;78.07;100875.84;5202036;28;20029;-73
2022/07/29 02:01:26;;;;;;;2.97;1.13;;;;;;;16.07;78.57;100865.56;5202966;28;20033;-73
2022/07/29 02:03:59;;;;;;;6.47;0.95;;;;;;;15.71;80.30;100864.03;5202240;28;20381;-74
2022/07/29 02:06:32;;;;;;;2.42;1.00;;;;;;;15.72;80.92;100873.63;5202068;28;20116;-73
2022/07/29 02:09:03;;;;;;;2.67;1.00;;;;;;;15.88;80.00;100872.75;5202085;28;20048;-74
2022/07/29 02:11:35;;;;;;;4.15;1.17;;;;;;;15.53;82.55;100868.44;5201921;28;20048;-73
2022/07/29 02:14:07;;;;;;;2.47;1.10;;;;;;;15.84;80.89;100875.66;5202406;28;20043;-74
2022/07/29 02:16:40;;;;;;;3.08;1.00;;;;;;;15.96;80.46;100870.56;5201417;28;20033;-73
2022/07/29 02:19:13;;;;;;;4.13;1.05;;;;;;;15.89;80.20;100871.81;5202544;28;20086;-73
2022/07/29 02:21:45;;;;;;;1.95;0.88;;;;;;;15.89;81.44;100876.25;5202253;28;20052;-73
2022/07/29 02:24:18;;;;;;;3.38;1.30;;;;;;;15.58;82.29;100866.44;5202085;28;20029;-74
2022/07/29 02:26:51;;;;;;;4.03;1.08;;;;;;;15.71;81.72;100861.38;5197335;28;20061;-73
2022/07/29 02:29:23;;;;;;;3.95;0.85;;;;;;;15.79;79.80;100854.78;5200660;28;20105;-73
2022/07/29 02:31:55;;;;;;;2.63;0.82;;;;;;;15.84;78.69;100854.56;5202130;28;20040;-73
2022/07/29 02:34:26;;;;;;;3.65;0.98;;;;;;;15.76;76.36;100843.53;5202025;28;20017;-73
2022/07/29 02:36:58;;;;;;;5.68;0.77;;;;;;;16.00;76.39;100844.88;5200519;28;20017;-74
2022/07/29 02:39:29;;;;;;;2.30;0.70;;;;;;;16.11;75.09;100843.41;5201100;28;20538;-74
2022/07/29 02:42:07;;;;;;;4.57;1.00;;;;;;;16.25;74.71;100846.09;5199953;28;20368;-73
2022/07/29 02:44:37;;;;;;;4.35;0.98;;;;;;;16.25;74.62;100842.63;5201629;28;20055;-73
2022/07/29 02:47:20;;;;;;;4.25;1.00;;;;;;;16.07;75.23;100841.00;5201016;28;20017;-73
2022/07/29 02:49:57;;;;;;;4.47;1.08;;;;;;;15.91;75.41;100837.47;5197701;28;20051;-73
2022/07/29 02:52:37;;;;;;;5.00;1.10;;;;;;;16.00;74.91;100835.19;5200051;28;20017;-73
2022/07/29 02:55:36;;;;;;;2.65;0.93;;;;;;;15.99;74.01;100836.13;5201794;28;20425;-74
2022/07/29 02:58:34;;;;;;;3.47;1.00;;;;;;;15.90;74.97;100836.59;5198501;28;20029;-71
2022/07/29 03:01:11;;;;;;;4.82;0.93;;;;;;;16.03;74.72;100840.28;5201620;28;20157;-74
2022/07/29 03:03:45;;;;;;;5.70;0.93;;;;;;;16.21;73.80;100841.94;5201353;28;20022;-74
2022/07/29 03:06:17;;;;;;;2.40;0.98;;;;;;;16.19;73.39;100838.53;5200739;28;20028;-73
2022/07/29 03:08:49;;;;;;;3.58;1.23;;;;;;;16.17;73.62;100840.41;5196714;28;20155;-74
2022/07/29 03:11:20;;;;;;;5.38;1.10;;;;;;;16.19;74.21;100843.81;5199485;28;20051;-73
2022/07/29 03:13:50;;;;;;;7.70;1.23;;;;;;;15.95;74.53;100837.22;5200907;28;20033;-73
2022/07/29 03:16:21;;;;;;;6.55;1.10;;;;;;;15.90;74.89;100839.25;5200647;28;20021;-73
2022/07/29 03:18:52;;;;;;;6.05;1.10;;;;;;;15.98;74.01;100849.38;5200409;28;20102;-74
2022/07/29 03:21:23;;;;;;;7.85;1.48;;;;;;;16.01;73.57;100847.44;5199953;28;20108;-73
2022/07/29 03:23:53;;;;;;;7.03;0.85;;;;;;;16.03;73.73;100848.22;5201121;28;20054;-74
2022/07/29 03:26:23;;;;;;;6.93;1.50;;;;;;;16.03;73.89;100848.22;5200900;28;20363;-73
2022/07/29 03:28:54;;;;;;;5.88;1.10;;;;;;;15.91;75.98;100861.19;5200238;28;20025;-73
2022/07/29 03:31:24;;;;;;;4.32;1.30;;;;;;;15.97;75.96;100852.94;5200991;28;20017;-74
2022/07/29 03:33:55;;;;;;;5.22;1.23;;;;;;;15.76;76.19;100857.59;5200991;28;20025;-74
2022/07/29 03:36:25;;;;;;;5.90;1.30;;;;;;;15.74;76.40;100853.31;5200627;28;20036;-73
2022/07/29 03:38:56;;;;;;;5.15;1.02;;;;;;;15.91;76.00;100843.56;5200499;28;20025;-73
2022/07/29 03:41:26;;;;;;;6.40;1.15;;;;;;;15.86;75.48;100842.97;5199277;28;20027;-73
2022/07/29 03:43:59;;;;;;;5.25;1.20;;;;;;;15.74;75.89;100843.63;5200837;28;20034;-74
2022/07/29 03:46:32;;;;;;;3.17;1.15;;;;;;;15.65;77.31;100836.19;5195920;28;20040;-73
2022/07/29 03:49:04;;;;;;;4.75;1.10;;;;;;;15.74;76.67;100830.44;5196706;28;20039;-74
2022/07/29 03:51:35;;;;;;;5.15;1.10;;;;;;;15.81;76.64;100828.34;5199461;28;20115;-73
2022/07/29 03:54:05;;;;;;;4.65;1.20;;;;;;;16.06;75.24;100823.47;5200440;28;20112;-73
2022/07/29 03:56:40;;;;;;;8.13;1.30;;;;;;;16.24;73.91;100825.13;5198379;28;20025;-72
2022/07/29 03:59:12;;;;;;;4.43;1.40;;;;;;;16.30;73.70;100825.63;5198754;28;20029;-73
2022/07/29 04:01:43;;;;;;;5.28;1.15;;;;;;;16.06;75.29;100826.94;5199093;28;20021;-73
2022/07/29 04:04:14;;;;;;;4.35;1.17;;;;;;;16.09;74.58;100825.94;5194465;28;20449;-73
2022/07/29 04:06:46;;;;;;;5.75;1.25;;;;;;;16.27;73.98;100823.16;5197233;28;20029;-73
2022/07/29 04:09:16;;;;;;;5.07;1.10;;;;;;;16.04;76.04;100827.97;5197344;28;20091;-74
2022/07/29 04:11:47;;;;;;;4.95;1.30;;;;;;;16.02;75.35;100822.78;5193580;28;20048;-73
2022/07/29 04:14:17;;;;;;;7.88;1.88;;;;;;;16.01;76.10;100821.06;5199357;28;20435;-73
2022/07/29 04:16:47;;;;;;;3.65;1.13;;;;;;;16.03;75.63;100821.84;5200412;28;20026;-73
2022/07/29 04:19:17;;;;;;;5.53;1.27;;;;;;;16.07;76.20;100823.38;5200439;28;20566;-73
2022/07/29 04:21:48;;;;;;;4.13;1.13;;;;;;;16.24;74.59;100819.84;5200606;28;20048;-74
2022/07/29 04:24:18;;;;;;;2.35;1.00;;;;;;;16.15;75.52;100820.31;5200517;28;20024;-73
2022/07/29 04:26:48;;;;;;;5.53;1.30;;;;;;;16.19;74.70;100829.78;5198196;28;20037;-73
2022/07/29 04:29:19;;;;;;;5.53;1.33;;;;;;;16.17;74.76;100826.34;5198771;28;20022;-73
2022/07/29 04:31:50;;;;;;;6.53;1.50;;;;;;;16.21;75.75;100830.56;5200133;28;20031;-73
2022/07/29 04:34:20;;;;;;;9.38;1.38;;;;;;;16.16;75.38;100832.56;5200324;28;20023;-74
2022/07/29 04:36:50;;;;;;;3.90;1.20;;;;;;;16.20;75.78;100828.84;5199788;28;20029;-74
2022/07/29 04:39:21;;;;;;;6.00;1.33;;;;;;;16.28;75.51;100821.38;5199544;28;20041;-74
2022/07/29 04:41:51;;;;;;;7.75;1.40;;;;;;;16.46;74.08;100823.88;5198736;28;20031;-74
2022/07/29 04:44:22;;;;;;;4.22;1.20;;;;;;;16.50;74.62;100828.03;5200078;28;20124;-73
2022/07/29 04:46:52;;;;;;;6.50;1.45;;;;;;;16.59;75.89;100837.25;5191793;28;20041;-73
2022/07/29 04:49:23;;;;;;;3.97;1.38;;;;;;;16.64;76.20;100838.69;5194140;28;20022;-74
2022/07/29 04:51:53;;;;;;;6.45;1.52;;;;;;;16.78;75.62;100833.50;5199924;28;20101;-74
2022/07/29 04:54:23;;;;;;;4.00;1.20;;;;;;;16.81;74.80;100828.88;5199804;28;20035;-73
2022/07/29 04:56:54;;;;;;;7.38;1.52;;;;;;;17.01;74.65;100825.94;5196774;28;20262;-74
2022/07/29 04:59:26;;;;;;;5.75;1.50;;;;;;;17.10;74.10;100827.19;5200310;28;20049;-73
2022/07/29 05:01:56;;;;;;;8.18;1.50;;;;;;;17.00;74.67;100831.31;5199169;28;20100;-74
2022/07/29 05:04:27;;;;;;;6.15;1.23;;;;;;;16.83;74.80;100829.63;5203949;28;20113;-74
2022/07/29 05:06:57;;;;;;;6.88;1.55;;;;;;;17.18;73.96;100836.38;5203453;28;20045;-73
2022/07/29 05:09:27;;;;;;;5.88;1.40;;;;;;;17.16;73.46;100834.78;5203497;28;20017;-74
2022/07/29 05:11:58;;;;;;;3.47;1.30;;;;;;;17.26;73.23;100830.63;5200954;28;20025;-74
2022/07/29 05:14:28;;;;;;;5.15;1.30;;;;;;;17.34;73.37;100826.63;5203333;28;20021;-73
2022/07/29 05:16:58;;;;;;;5.63;1.40;;;;;;;17.10;74.19;100828.06;5200053;28;20120;-74
2022/07/29 05:19:29;;;;;;;7.30;1.42;;;;;;;17.28;73.62;100823.50;5202270;28;20022;-74
2022/07/29 05:21:59;;;;;;;3.97;1.40;;;;;;;17.43;73.06;100814.66;5201588;28;20079;-74
2022/07/29 05:24:30;;;;;;;6.47;1.42;;;;;;;17.44;73.92;100822.50;5201686;28;20033;-74
2022/07/29 05:27:00;;;;;;;6.32;1.60;;;;;;;17.57;74.59;100814.69;5201318;28;20025;-74
2022/07/29 05:29:31;;;;;;;7.38;1.40;;;;;;;17.54;74.60;100815.75;5200832;28;20028;-74
2022/07/29 05:32:01;;;;;;;4.75;1.40;;;;;;;17.41;74.62;100819.19;5201640;28;20029;-74
2022/07/29 05:34:31;;;;;;;5.60;1.50;;;;;;;17.41;74.47;100816.56;5201349;28;20032;-74
2022/07/29 05:37:02;;;;;;;7.30;1.60;;;;;;;17.26;75.76;100825.34;5200795;28;20044;-74
2022/07/29 05:39:32;;;;;;;5.65;1.45;;;;;;;17.21;75.84;100814.22;5200217;28;20022;-74
2022/07/29 05:42:03;;;;;;;5.30;1.63;;;;;;;17.25;75.52;100818.38;5196328;28;20041;-74
2022/07/29 05:44:36;;;;;;;7.32;1.52;;;;;;;17.32;75.19;100823.19;5200953;28;20025;-74
2022/07/29 05:47:06;;;;;;;8.60;1.38;;;;;;;17.23;75.92;100820.25;5200490;28;20045;-74
2022/07/29 05:49:37;;;;;;;5.32;1.58;;;;;;;17.34;75.99;100818.72;5201922;28;20505;-74
2022/07/29 05:52:08;;;;;;;6.55;1.48;;;;;;;17.43;74.98;100826.09;5200680;28;20021;-74
2022/07/29 05:54:39;;;;;;;7.63;2.00;;;;;;;17.57;74.39;100822.63;5202873;28;20041;-74
2022/07/29 05:57:17;;;;;;;6.45;1.70;;;;;;;17.68;74.52;100834.25;5200856;28;20065;-74
2022/07/29 05:59:48;;;;;;;7.55;1.98;;;;;;;17.67;74.44;100831.72;5200837;28;20032;-73
2022/07/29 06:02:19;;;;;;;4.72;1.65;;;;;;;18.05;73.15;100832.84;5200674;28;20486;-74
2022/07/29 06:04:49;;;;;;;4.43;1.60;;;;;;;18.10;73.54;100831.63;5201470;28;20028;-74
2022/07/29 06:07:19;;;;;;;5.10;1.98;;;;;;;18.21;73.83;100829.16;5201573;28;20104;-74
2022/07/29 06:09:50;;;;;;;9.40;1.70;;;;;;;18.57;72.06;100836.59;5202308;28;20037;-74
2022/07/29 06:12:20;;;;;;;8.82;2.08;;;;;;;18.83;71.31;100845.44;5201015;28;20017;-75
2022/07/29 06:14:50;;;;;;;7.38;1.77;;;;;;;18.71;71.44;100849.81;5202679;28;20064;-74
2022/07/29 06:17:21;;;;;;;7.50;2.05;;;;;;;18.74;72.12;100839.88;5201763;28;20379;-74
2022/07/29 06:19:51;;;;;;;5.93;1.50;;;;;;;18.97;71.77;100842.69;5201199;28;20419;-74
2022/07/29 06:22:21;;;;;;;9.52;1.80;;;;;;;18.87;71.97;100832.81;5202531;28;20029;-74
2022/07/29 06:24:52;;;;;;;5.93;1.63;;;;;;;18.78;71.65;100828.97;5201064;28;20036;-74
2022/07/29 06:27:22;;;;;;;8.77;2.05;;;;;;;18.62;73.20;100823.91;5199154;28;20027;-74
2022/07/29 06:29:52;;;;;;;6.55;1.52;;;;;;;18.30;73.30;100818.03;5200025;28;20030;-75
2022/07/29 06:32:23;;;;;;;9.57;1.98;;;;;;;18.63;72.56;100818.53;5200123;28;20347;-74
2022/07/29 06:34:53;;;;;;;10.75;2.03;;;;;;;18.85;71.86;100822.34;5201683;28;20060;-73
2022/07/29 06:37:23;;;;;;;14.73;2.13;;;;;;;18.91;71.40;100829.03;5200798;28;20083;-74
2022/07/29 06:42:47;;;;;;;7.47;1.90;;;;;;;19.15;71.62;100815.00;5193181;28;20499;-74
2022/07/29 06:45:17;;;;;;;6.82;1.70;;;;;;;19.04;71.21;100819.31;5201633;28;20151;-74
2022/07/29 06:47:49;;;;;;;5.97;2.08;;;;;;;18.61;72.11;100817.78;5201996;28;20032;-74
2022/07/29 06:50:21;;;;;;;22.58;3.28;;;;;;;18.48;72.86;100818.66;5199915;28;20033;-74
2022/07/29 06:52:51;;;;;;;7.35;1.98;;;;;;;18.84;71.34;100825.94;5201480;28;20636;-74
2022/07/29 06:55:22;;;;;;;7.35;2.00;;;;;;;18.78;72.10;100822.84;5198985;28;20033;-74
2022/07/29 06:57:52;;;;;;;9.98;2.15;;;;;;;18.95;72.04;100822.59;5199933;28;20026;-74
2022/07/29 07:00:22;;;;;;;8.15;1.92;;;;;;;18.98;71.77;100823.25;5200217;28;20017;-74
2022/07/29 07:02:53;;;;;;;10.20;2.00;;;;;;;19.33;70.87;100818.25;5199601;28;20029;-73
2022/07/29 07:05:23;;;;;;;12.60;2.38;;;;;;;20.85;66.65;100825.00;5198859;28;20024;-74
2022/07/29 07:07:53;;;;;;;5.78;2.00;;;;;;;22.29;63.81;100821.75;5199032;28;20025;-74
2022/07/29 07:10:24;;;;;;;5.15;1.80;;;;;;;23.38;60.48;100818.78;5197691;28;20032;-75
2022/07/29 07:12:54;;;;;;;5.60;1.75;;;;;;;23.82;59.61;100809.66;5199523;28;20029;-75
2022/07/29 07:15:24;;;;;;;4.85;1.73;;;;;;;24.42;58.47;100820.34;5199889;28;20056;-75
2022/07/29 07:17:55;;;;;;;9.43;2.53;;;;;;;24.32;57.71;100814.13;5198682;28;20029;-74
2022/07/29 07:20:25;;;;;;;4.10;1.88;;;;;;;23.91;58.76;100825.75;5201171;28;20027;-75
2022/07/29 07:22:55;;;;;;;6.03;1.85;;;;;;;25.28;55.50;100808.84;5199771;28;20647;-75
2022/07/29 07:25:26;;;;;;;4.85;1.73;;;;;;;25.30;55.74;100807.72;5200019;28;20021;-76
2022/07/29 07:27:57;;;;;;;4.85;1.90;;;;;;;25.73;55.66;100801.84;5200038;28;20025;-75
2022/07/29 07:30:27;;;;;;;6.63;1.75;;;;;;;24.94;56.22;100794.19;5201167;28;20048;-75
2022/07/29 07:32:59;;;;;;;7.82;1.80;;;;;;;24.33;57.49;100799.78;5196079;28;20027;-75
2022/07/29 07:35:29;;;;;;;8.13;2.03;;;;;;;24.39;57.58;100796.59;5199078;28;20028;-75
2022/07/29 07:37:59;;;;;;;6.78;2.00;;;;;;;23.91;58.54;100799.03;5200079;28;20025;-75
2022/07/29 07:40:30;;;;;;;5.03;1.90;;;;;;;23.21;60.06;100795.34;5200487;28;20022;-75
2022/07/29 07:43:00;;;;;;;6.85;1.70;;;;;;;24.08;59.06;100787.72;5199303;28;20053;-75
2022/07/29 07:45:32;;;;;;;10.00;1.95;;;;;;;24.61;57.49;100775.84;5200352;28;20017;-74
2022/07/29 07:48:03;;;;;;;11.35;2.10;;;;;;;25.41;56.60;100771.91;5199831;28;20021;-75
2022/07/29 07:50:34;;;;;;;11.40;1.90;;;;;;;26.72;54.03;100768.00;5200389;28;20033;-75
2022/07/29 07:53:04;;;;;;;6.10;1.65;;;;;;;27.32;52.33;100771.63;5200505;28;20517;-75
2022/07/29 07:55:40;;;;;;;5.65;1.73;;;;;;;26.01;53.82;100768.81;5197697;28;20021;-75
2022/07/29 07:58:10;;;;;;;11.20;1.65;;;;;;;25.50;54.32;100774.56;5199823;28;20368;-74
2022/07/29 08:00:41;;;;;;;10.60;1.73;;;;;;;25.64;54.42;100770.59;5200558;28;20105;-74
2022/07/29 08:03:13;;;;;;;6.40;1.75;;;;;;;25.71;54.78;100763.66;5200184;28;20056;-74
2022/07/29 08:05:43;;;;;;;8.27;1.70;;;;;;;25.55;56.00;100771.47;5200387;28;20491;-75
2022/07/29 08:08:14;;;;;;;6.93;2.00;;;;;;;25.21;55.62;100764.91;5198546;28;20076;-74
2022/07/29 08:10:53;;;;;;;12.10;1.85;;;;;;;23.86;58.91;100771.91;5200298;28;20128;-75
2022/07/29 08:13:27;;;;;;;4.32;1.50;;;;;;;23.65;59.93;100770.22;5197687;28;20096;-73
2022/07/29 08:16:00;;;;;;;5.90;1.85;;;;;;;23.51;59.73;100767.91;5200351;28;20025;-74
2022/07/29 08:18:31;;;;;;;7.00;1.77;;;;;;;23.69;59.78;100777.84;5199591;28;20552;-74
2022/07/29 08:21:01;;;;;;;5.03;1.75;;;;;;;23.72;60.04;100777.56;5200354;28;20033;-75
2022/07/29 08:23:38;;;;;;;5.10;1.70;;;;;;;23.48;60.20;100774.34;5200225;28;20075;-75
2022/07/29 08:26:10;;;;;;;5.97;1.98;;;;;;;23.22;60.91;100775.69;5199522;28;20398;-75
2022/07/29 08:28:45;;;;;;;11.90;2.05;;;;;;;23.02;61.40;100775.66;5198605;28;20018;-75
2022/07/29 08:31:16;;;;;;;10.52;2.08;;;;;;;23.60;61.15;100772.44;5198859;28;20080;-75
2022/07/29 08:33:46;;;;;;;5.90;1.90;;;;;;;24.06;60.38;100779.00;5196534;28;20037;-75
2022/07/29 08:36:17;;;;;;;4.40;1.63;;;;;;;24.16;58.28;100777.22;5203751;28;20087;-75
2022/07/29 08:38:49;;;;;;;10.43;1.90;;;;;;;23.75;59.46;100781.78;5203166;28;20029;-74
2022/07/29 08:41:19;;;;;;;10.25;1.83;;;;;;;23.78;59.63;100776.19;5203968;28;20021;-75
2022/07/29 08:43:50;;;;;;;6.63;1.85;;;;;;;24.24;58.31;100784.56;5203740;28;20056;-75
2022/07/29 08:46:21;;;;;;;9.85;2.08;;;;;;;23.91;59.64;100783.03;5203479;28;20531;-75
2022/07/29 08:48:52;;;;;;;11.23;2.13;;;;;;;;;;5203238;28;20056;-75
2022/07/29 08:51:25;;;;;;;11.35;2.25;;;;;;;25.17;56.08;100776.84;5203312;28;20028;-75
2022/07/29 08:53:55;;;;;;;17.17;2.35;;;;;;;27.12;52.87;100770.09;5202197;28;20032;-75
2022/07/29 08:56:26;;;;;;;6.25;1.70;;;;;;;28.42;50.92;100765.38;5201736;28;20108;-75
2022/07/29 08:58:58;;;;;;;6.13;1.73;;;;;;;28.25;51.06;100766.28;5203258;28;20029;-75
2022/07/29 09:01:31;;;;;;;14.43;2.08;;;;;;;27.09;52.77;100774.91;5203486;28;20030;-74
2022/07/29 09:04:04;;;;;;;8.73;1.92;;;;;;;26.01;54.33;100782.22;5203620;28;20021;-75
2022/07/29 09:06:39;;;;;;;5.38;1.92;;;;;;;26.16;54.70;100778.88;5203430;28;20021;-75
2022/07/29 09:09:09;;;;;;;6.97;1.70;;;;;;;25.39;55.60;100776.56;5203385;28;20021;-75
2022/07/29 09:11:41;;;;;;;5.82;1.80;;;;;;;26.04;55.39;100773.88;5203454;28;20649;-75
2022/07/29 09:14:13;;;;;;;5.75;1.83;;;;;;;26.39;54.08;100773.97;5201638;28;20108;-74
2022/07/29 09:16:54;;;;;;;6.72;1.88;;;;;;;27.27;53.61;100767.72;5202837;28;20021;-75
2022/07/29 09:19:28;;;;;;;4.72;1.90;;;;;;;26.64;53.83;100770.56;5198655;28;20034;-75
2022/07/29 09:22:00;;;;;;;4.53;1.80;;;;;;;26.35;54.93;100761.88;5203258;28;20025;-75
2022/07/29 09:24:47;;;;;;;6.65;1.80;;;;;;;26.12;54.51;100766.78;5202462;28;20489;-75
2022/07/29 09:27:19;;;;;;;9.13;2.00;;;;;;;25.50;55.88;100763.03;5197823;28;20191;-75
2022/07/29 09:29:57;;;;;;;5.85;1.80;;;;;;;25.91;55.39;100762.63;5202512;28;20030;-75
2022/07/29 09:32:28;;;;;;;5.13;1.70;;;;;;;26.03;55.54;100766.81;5202987;28;20726;-75
2022/07/29 09:35:16;;;;;;;5.50;1.92;;;;;;;26.66;54.99;100755.22;5201210;28;20103;-75
2022/07/29 09:37:47;;;;;;;5.80;1.60;;;;;;;27.18;53.41;100764.13;5198171;28;20021;-75
2022/07/29 09:40:23;;;;;;;9.73;2.05;;;;;;;27.15;54.05;100759.06;5202444;28;20052;-75
2022/07/29 09:42:56;;;;;;;;;;;;;;;28.21;52.49;100754.19;5203267;28;20029;-75
2022/07/29 09:45:32;;;;;;;6.32;1.88;;;;;;;28.59;52.13;100751.81;5201142;28;20357;-76
2022/07/29 09:48:21;;;;;;;4.13;1.70;;;;;;;27.70;52.68;100748.84;5202796;28;20029;-75
2022/07/29 09:50:52;;;;;;;4.60;1.80;;;;;;;29.20;50.85;100741.47;5199085;28;20021;-75
2022/07/29 09:53:33;;;;;;;4.60;1.60;;;;;;;29.62;50.02;100742.13;5201556;28;20595;-75
2022/07/29 09:56:04;;;;;;;9.18;2.03;;;;;;;29.82;50.02;100738.00;5198604;28;20057;-75
2022/07/29 09:58:35;;;;;;;6.03;1.80;;;;;;;29.35;50.23;100734.38;5201401;28;20043;-75
2022/07/29 10:01:05;;;;;;;10.13;1.95;;;;;;;29.07;50.18;100747.34;5202256;28;20467;-75
2022/07/29 10:04:05;;;;;;;9.75;2.10;;;;;;;29.29;50.67;100732.38;5202114;28;20128;-76
2022/07/29 10:06:56;;;;;;;8.85;1.80;;;;;;;30.10;49.86;100728.50;5191278;28;20025;-74
2022/07/29 10:09:26;;;;;;;7.75;2.20;;;;;;;29.89;50.20;100720.13;5199558;28;20013;-75
2022/07/29 10:12:13;;;;;;;13.50;2.10;;;;;;;29.37;50.58;100708.94;5202092;28;20025;-75
2022/07/29 10:14:43;;;;;;;10.65;2.08;;;;;;;27.59;52.38;100720.41;5201818;28;20048;-76
2022/07/29 10:17:15;;;;;;;7.85;2.10;;;;;;;27.86;52.75;100716.72;5201271;28;20079;-75
2022/07/29 10:19:46;;;;;;;5.85;1.80;;;;;;;28.29;52.14;100719.25;5201484;28;20053;-75
2022/07/29 10:22:17;;;;;;;9.10;2.00;;;;;;;27.78;52.85;100714.84;5197632;28;20045;-75
2022/07/29 10:24:48;;;;;;;6.43;1.70;;;;;;;27.71;52.57;100719.19;5201184;28;20065;-75
2022/07/29 10:27:19;;;;;;;4.88;1.90;;;;;;;26.91;54.97;100717.72;5200530;28;20021;-75
2022/07/29 10:29:49;;;;;;;6.03;1.90;;;;;;;27.12;54.32;100718.25;5200988;28;20022;-75
2022/07/29 10:32:40;;;;;;;6.60;1.90;;;;;;;26.61;55.39;100703.84;5201517;28;20410;-75
2022/07/29 10:35:13;;;;;;;6.63;2.00;;;;;;;26.39;54.95;100712.31;5200634;28;20029;-74
2022/07/29 10:38:03;;;;;;;13.45;2.17;;;;;;;25.97;56.30;100717.34;5200554;28;20026;-74
2022/07/29 10:44:07;;;;;;;5.50;1.65;;;;;;;26.02;52.28;100714.22;5181117;28;20091;-75
2022/07/29 10:46:40;;;;;;;13.43;2.38;;;;;;;25.99;51.90;100710.00;5200427;28;20021;-74
2022/07/29 10:49:20;;;;;;;6.28;1.73;;;;;;;25.99;51.99;100711.84;5199886;28;20487;-74
2022/07/29 10:52:09;;;;;;;7.95;1.80;;;;;;;26.17;53.08;100712.72;5195196;28;20039;-75
2022/07/29 10:54:53;;;;;;;6.70;1.73;;;;;;;26.07;52.02;100707.44;5198809;28;20471;-75
2022/07/29 10:57:29;;;;;;;9.18;1.98;;;;;;;26.07;51.50;100701.22;5196167;28;20540;-75
2022/07/29 11:00:13;;;;;;;4.35;2.10;;;;;;;25.98;51.64;100702.94;5197494;28;20502;-75
2022/07/29 11:02:51;;;;;;;9.40;2.00;;;;;;;25.84;52.06;100707.94;5199899;28;20033;-75
2022/07/29 11:05:23;;;;;;;5.00;1.98;;;;;;;26.17;51.52;100710.06;5198589;28;20541;-75
2022/07/29 11:08:12;;;;;;;4.40;1.88;;;;;;;25.92;52.17;100716.94;5199213;28;20041;-74
2022/07/29 11:10:42;;;;;;;8.32;2.30;;;;;;;25.66;52.34;100710.53;5200026;28;20025;-75
2022/07/29 11:13:13;;;;;;;3.83;2.00;;;;;;;25.67;52.67;100706.03;5199688;28;20020;-74
2022/07/29 11:15:54;;;;;;;5.15;1.90;;;;;;;26.04;52.54;100704.19;5181827;28;20033;-75
2022/07/29 11:18:25;;;;;;;8.68;2.25;;;;;;;25.99;51.90;100701.97;5195745;28;20031;-73
2022/07/29 11:20:55;;;;;;;7.57;2.38;;;;;;;26.06;52.54;100702.22;5198614;28;20507;-75
2022/07/29 11:23:38;;;;;;;5.03;1.90;;;;;;;26.15;52.30;100706.69;5196933;28;20096;-75
2022/07/29 11:26:21;;;;;;;6.60;1.95;;;;;;;26.26;52.06;100698.41;5196025;28;20026;-75
2022/07/29 11:28:54;;;;;;;5.85;1.83;;;;;;;26.10;52.20;100698.22;5197605;28;20112;-72
2022/07/29 11:31:42;;;;;;;5.28;2.05;;;;;;;26.18;52.09;100701.00;5199527;28;20026;-75
2022/07/29 11:34:24;;;;;;;9.90;2.20;;;;;;;26.36;51.75;100692.00;5195671;28;20037;-75
2022/07/29 11:37:10;;;;;;;5.15;1.75;;;;;;;26.11;51.61;100699.91;5191960;28;20094;-75
2022/07/29 11:39:44;;;;;;;;;;;;;;;26.11;51.03;100697.22;5195510;28;20083;-75
2022/07/29 11:42:38;;;;;;;8.85;2.17;;;;;;;26.15;49.29;100699.47;5196589;28;19920;-75
2022/07/29 11:45:20;;;;;;;5.20;2.03;;;;;;;26.21;48.22;100700.72;5195918;28;20025;-75
2022/07/29 11:47:53;;;;;;;6.22;1.95;;;;;;;26.15;48.84;100693.28;5151709;28;1259990;-75
2022/07/29 11:50:35;;;;;;;5.65;1.77;;;;;;;26.32;48.51;100697.84;5195966;28;20442;-75
2022/07/29 11:53:13;;;;;;;5.53;1.90;;;;;;;26.19;48.11;100687.44;5190280;28;20041;-75
2022/07/29 11:55:43;;;;;;;4.68;2.00;;;;;;;26.15;48.41;100693.28;5193743;28;20068;-75
2022/07/29 11:58:13;;;;;;;7.78;2.35;;;;;;;26.16;48.45;100693.13;5195881;28;20669;-75
2022/07/29 12:00:47;;;;;;;5.07;2.00;;;;;;;26.13;48.07;100704.13;5200324;28;20536;-74